aviador You're here:

KBIS Decoded Metar

BISMARCK in ND, USA
Report Time2018-05-23 19:52:00
UTC Time2018-05-23 20:41:13
Flight Rules vfr VFR
Wind140° at 13 kt
W.Decomp.*RWY 13: 13.0 kt HW 0.7 kt RCW
RWY 21: 2.9 kt HW 12.7 kt LCW
W.Rank140° ranks 7
Current wind is above 140° avg. (8.6)
Visibility9999 m
Phenomena:N/A
Clouds:Overcast 055 Hf
Expected CloudBase > 3,600 ft AGL from Temp-Dew spread
Ceiling5,500 ft
Temp25°C (ISA +13)
Dew Point16°C (57% RH)
AAT22.3°C
QNH1012 hPa
Density Alt3,471 ft
Elevation1,657 ft
Report Wrong Elevation
Raw Report
KBIS 231952Z 14013KT 10SM OVC055 25/16 A2989 RMK AO2 SLP114
T02500161=

Extra information for KBIS:More info

Metar Taf Metar & Taf Last 4 Metars F.Rules Stats Wind Profile Meteogram Temp Stats Airport Information Weather charts Add Link Nearby VenuesMetar ALERT Operation Metar Decoded Social comments

AIRNAV info for KBIS